sensor_id;sensor_type;location;lat;lon;timestamp;pressure;altitude;pressure_sealevel;temperature;humidity
28665;BME280;15850;47.524;7.814;2022-12-10T00:01:39;96481.56;;;0.46;100.00
28665;BME280;15850;47.524;7.814;2022-12-10T00:04:05;96339.53;;;-0.39;100.00
28665;BME280;15850;47.524;7.814;2022-12-10T00:06:32;96431.19;;;0.26;100.00
28665;BME280;15850;47.524;7.814;2022-12-10T00:08:58;96065.69;;;-2.28;100.00
28665;BME280;15850;47.524;7.814;2022-12-10T00:11:24;96488.16;;;0.40;100.00
28665;BME280;15850;47.524;7.814;2022-12-10T00:13:51;96436.47;;;0.03;100.00
28665;BME280;15850;47.524;7.814;2022-12-10T00:16:19;96477.03;;;0.46;100.00
28665;BME280;15850;47.524;7.814;2022-12-10T00:18:46;96473.72;;;0.63;100.00
28665;BME280;15850;47.524;7.814;2022-12-10T00:21:14;96470.56;;;0.47;100.00
28665;BME280;15850;47.524;7.814;2022-12-10T00:23:40;96411.22;;;0.09;100.00
28665;BME280;15850;47.524;7.814;2022-12-10T00:26:08;96476.63;;;0.53;100.00
28665;BME280;15850;47.524;7.814;2022-12-10T00:28:34;96466.47;;;0.28;100.00
28665;BME280;15850;47.524;7.814;2022-12-10T00:31:03;96486.59;;;0.61;100.00
28665;BME280;15850;47.524;7.814;2022-12-10T00:33:30;96452.31;;;0.13;100.00
28665;BME280;15850;47.524;7.814;2022-12-10T00:35:55;96489.81;;;0.36;100.00
28665;BME280;15850;47.524;7.814;2022-12-10T00:38:21;96300.38;;;-1.12;100.00
28665;BME280;15850;47.524;7.814;2022-12-10T00:40:47;96362.59;;;-0.43;100.00
28665;BME280;15850;47.524;7.814;2022-12-10T00:43:12;96184.03;;;-1.55;100.00
28665;BME280;15850;47.524;7.814;2022-12-10T00:45:38;96423.78;;;0.09;100.00
28665;BME280;15850;47.524;7.814;2022-12-10T00:48:03;96482.16;;;0.43;100.00
28665;BME280;15850;47.524;7.814;2022-12-10T00:50:30;96444.97;;;0.19;100.00
28665;BME280;15850;47.524;7.814;2022-12-10T00:52:56;96448.06;;;0.12;100.00
28665;BME280;15850;47.524;7.814;2022-12-10T00:55:23;96475.38;;;0.37;100.00
28665;BME280;15850;47.524;7.814;2022-12-10T00:57:48;96418.75;;;0.07;100.00
28665;BME280;15850;47.524;7.814;2022-12-10T01:00:14;96484.50;;;0.22;100.00
28665;BME280;15850;47.524;7.814;2022-12-10T01:02:40;96285.94;;;-0.98;100.00
28665;BME280;15850;47.524;7.814;2022-12-10T01:05:06;96481.13;;;0.30;100.00
28665;BME280;15850;47.524;7.814;2022-12-10T01:07:33;96432.66;;;-0.32;100.00
28665;BME280;15850;47.524;7.814;2022-12-10T01:09:59;96495.75;;;0.33;100.00
28665;BME280;15850;47.524;7.814;2022-12-10T01:12:24;96222.53;;;-1.61;100.00
28665;BME280;15850;47.524;7.814;2022-12-10T01:14:50;96488.25;;;0.35;100.00
28665;BME280;15850;47.524;7.814;2022-12-10T01:17:15;96480.50;;;0.47;100.00
28665;BME280;15850;47.524;7.814;2022-12-10T01:19:41;96419.38;;;-0.10;100.00
28665;BME280;15850;47.524;7.814;2022-12-10T01:22:06;96490.91;;;0.35;100.00
28665;BME280;15850;47.524;7.814;2022-12-10T01:24:36;96380.78;;;-0.45;100.00
28665;BME280;15850;47.524;7.814;2022-12-10T01:27:02;96397.00;;;-0.41;100.00
28665;BME280;15850;47.524;7.814;2022-12-10T01:29:28;96361.97;;;-0.54;100.00
28665;BME280;15850;47.524;7.814;2022-12-10T01:31:55;96505.69;;;0.32;100.00
28665;BME280;15850;47.524;7.814;2022-12-10T01:34:21;96505.19;;;0.30;100.00
28665;BME280;15850;47.524;7.814;2022-12-10T01:36:50;96509.25;;;0.28;100.00
28665;BME280;15850;47.524;7.814;2022-12-10T01:39:17;96443.69;;;0.03;100.00
28665;BME280;15850;47.524;7.814;2022-12-10T01:41:48;96516.16;;;0.42;100.00
28665;BME280;15850;47.524;7.814;2022-12-10T01:47:19;96516.75;;;0.39;100.00
28665;BME280;15850;47.524;7.814;2022-12-10T01:49:46;96106.31;;;-2.36;100.00
28665;BME280;15850;47.524;7.814;2022-12-10T01:52:12;96415.81;;;-0.19;100.00
28665;BME280;15850;47.524;7.814;2022-12-10T01:54:39;96498.63;;;0.36;100.00
28665;BME280;15850;47.524;7.814;2022-12-10T01:57:10;96407.00;;;-0.33;100.00
28665;BME280;15850;47.524;7.814;2022-12-10T01:59:38;96506.09;;;0.12;100.00
28665;BME280;15850;47.524;7.814;2022-12-10T02:02:10;96492.03;;;0.06;100.00
28665;BME280;15850;47.524;7.814;2022-12-10T02:04:42;96470.03;;;0.09;100.00
28665;BME280;15850;47.524;7.814;2022-12-10T02:07:22;96512.22;;;0.40;100.00
28665;BME280;15850;47.524;7.814;2022-12-10T02:09:54;96510.03;;;0.42;100.00
28665;BME280;15850;47.524;7.814;2022-12-10T02:12:24;96502.97;;;0.46;100.00
28665;BME280;15850;47.524;7.814;2022-12-10T02:15:00;96512.00;;;0.36;100.00
28665;BME280;15850;47.524;7.814;2022-12-10T02:17:32;96518.56;;;0.16;100.00
28665;BME280;15850;47.524;7.814;2022-12-10T02:20:05;96520.47;;;0.16;100.00
28665;BME280;15850;47.524;7.814;2022-12-10T02:22:36;96492.75;;;-0.02;100.00
28665;BME280;15850;47.524;7.814;2022-12-10T02:25:06;96395.31;;;-0.79;100.00
28665;BME280;15850;47.524;7.814;2022-12-10T02:27:42;96436.00;;;-0.13;100.00
28665;BME280;15850;47.524;7.814;2022-12-10T02:30:13;96469.06;;;0.05;100.00
28665;BME280;15850;47.524;7.814;2022-12-10T02:32:41;96513.72;;;0.18;100.00
28665;BME280;15850;47.524;7.814;2022-12-10T02:35:12;96477.19;;;0.00;100.00
28665;BME280;15850;47.524;7.814;2022-12-10T02:37:44;96453.41;;;-0.02;100.00
28665;BME280;15850;47.524;7.814;2022-12-10T02:40:15;96504.41;;;0.43;100.00
28665;BME280;15850;47.524;7.814;2022-12-10T02:42:48;96457.69;;;0.13;100.00
28665;BME280;15850;47.524;7.814;2022-12-10T02:45:17;96329.53;;;-0.61;100.00
28665;BME280;15850;47.524;7.814;2022-12-10T02:47:43;96244.31;;;-1.26;100.00
28665;BME280;15850;47.524;7.814;2022-12-10T02:50:12;96387.50;;;-0.34;100.00
28665;BME280;15850;47.524;7.814;2022-12-10T02:52:40;96490.03;;;0.26;100.00
28665;BME280;15850;47.524;7.814;2022-12-10T02:55:10;96496.38;;;0.43;100.00
28665;BME280;15850;47.524;7.814;2022-12-10T02:57:39;96415.78;;;-0.05;100.00
28665;BME280;15850;47.524;7.814;2022-12-10T03:00:11;96512.06;;;0.59;100.00
28665;BME280;15850;47.524;7.814;2022-12-10T03:02:54;96397.97;;;-0.24;100.00
28665;BME280;15850;47.524;7.814;2022-12-10T03:05:23;96519.63;;;0.43;100.00
28665;BME280;15850;47.524;7.814;2022-12-10T03:07:56;96514.59;;;0.41;100.00
28665;BME280;15850;47.524;7.814;2022-12-10T03:10:27;96515.59;;;0.32;100.00
28665;BME280;15850;47.524;7.814;2022-12-10T03:12:58;96500.16;;;0.15;100.00
28665;BME280;15850;47.524;7.814;2022-12-10T03:15:25;96503.19;;;0.36;100.00
28665;BME280;15850;47.524;7.814;2022-12-10T03:17:53;96298.19;;;-1.10;100.00
28665;BME280;15850;47.524;7.814;2022-12-10T03:20:22;96507.47;;;0.37;100.00
28665;BME280;15850;47.524;7.814;2022-12-10T03:22:49;96502.38;;;0.49;100.00
28665;BME280;15850;47.524;7.814;2022-12-10T03:25:19;96455.97;;;0.17;100.00
28665;BME280;15850;47.524;7.814;2022-12-10T03:27:45;96498.13;;;0.48;100.00
28665;BME280;15850;47.524;7.814;2022-12-10T03:30:13;96499.31;;;0.42;100.00
28665;BME280;15850;47.524;7.814;2022-12-10T03:32:39;96348.63;;;-0.81;100.00
28665;BME280;15850;47.524;7.814;2022-12-10T03:35:07;96504.13;;;0.17;100.00
28665;BME280;15850;47.524;7.814;2022-12-10T03:37:33;96477.19;;;0.14;100.00
28665;BME280;15850;47.524;7.814;2022-12-10T03:39:59;96506.75;;;0.45;100.00
28665;BME280;15850;47.524;7.814;2022-12-10T03:42:24;96229.38;;;-1.41;100.00
28665;BME280;15850;47.524;7.814;2022-12-10T03:44:51;96440.66;;;-0.32;100.00
28665;BME280;15850;47.524;7.814;2022-12-10T03:47:17;96470.53;;;0.11;100.00
28665;BME280;15850;47.524;7.814;2022-12-10T03:49:43;96503.78;;;0.33;100.00
28665;BME280;15850;47.524;7.814;2022-12-10T03:52:11;96465.06;;;0.16;100.00
28665;BME280;15850;47.524;7.814;2022-12-10T03:54:37;96474.31;;;0.10;100.00
28665;BME280;15850;47.524;7.814;2022-12-10T03:57:02;96492.72;;;0.12;100.00
28665;BME280;15850;47.524;7.814;2022-12-10T03:59:28;96491.84;;;0.30;100.00
28665;BME280;15850;47.524;7.814;2022-12-10T04:01:57;96445.13;;;0.00;100.00
28665;BME280;15850;47.524;7.814;2022-12-10T04:04:22;96490.31;;;0.38;100.00
28665;BME280;15850;47.524;7.814;2022-12-10T04:06:48;96338.44;;;-0.65;100.00
28665;BME280;15850;47.524;7.814;2022-12-10T04:09:15;96500.13;;;0.29;100.00
28665;BME280;15850;47.524;7.814;2022-12-10T04:11:41;96493.50;;;0.26;100.00
28665;BME280;15850;47.524;7.814;2022-12-10T04:14:08;96495.34;;;0.39;100.00
28665;BME280;15850;47.524;7.814;2022-12-10T04:16:34;96008.38;;;-2.72;100.00
28665;BME280;15850;47.524;7.814;2022-12-10T04:19:02;96496.44;;;0.52;100.00
28665;BME280;15850;47.524;7.814;2022-12-10T04:21:30;96393.44;;;-0.09;100.00
28665;BME280;15850;47.524;7.814;2022-12-10T04:23:56;96149.53;;;-2.25;100.00
28665;BME280;15850;47.524;7.814;2022-12-10T04:26:23;95713.19;;;-4.77;100.00
28665;BME280;15850;47.524;7.814;2022-12-10T04:28:48;95950.72;;;-3.23;100.00
28665;BME280;15850;47.524;7.814;2022-12-10T04:31:14;95955.63;;;-3.30;100.00
28665;BME280;15850;47.524;7.814;2022-12-10T04:33:40;96525.38;;;0.36;100.00
28665;BME280;15850;47.524;7.814;2022-12-10T04:36:06;96507.34;;;0.42;100.00
28665;BME280;15850;47.524;7.814;2022-12-10T04:38:31;96512.03;;;0.22;100.00
28665;BME280;15850;47.524;7.814;2022-12-10T04:40:57;96346.75;;;-0.81;100.00
28665;BME280;15850;47.524;7.814;2022-12-10T04:43:24;96501.94;;;0.33;100.00
28665;BME280;15850;47.524;7.814;2022-12-10T04:45:49;96486.56;;;0.25;100.00
28665;BME280;15850;47.524;7.814;2022-12-10T04:48:15;96519.66;;;0.29;100.00
28665;BME280;15850;47.524;7.814;2022-12-10T04:50:40;96454.78;;;0.10;100.00
28665;BME280;15850;47.524;7.814;2022-12-10T04:53:07;96265.56;;;-1.21;100.00
28665;BME280;15850;47.524;7.814;2022-12-10T04:55:32;96509.13;;;0.33;100.00
28665;BME280;15850;47.524;7.814;2022-12-10T04:57:58;96469.47;;;-0.02;100.00
28665;BME280;15850;47.524;7.814;2022-12-10T05:00:25;96484.22;;;0.23;100.00
28665;BME280;15850;47.524;7.814;2022-12-10T05:02:50;96509.84;;;0.38;100.00
28665;BME280;15850;47.524;7.814;2022-12-10T05:05:16;96407.09;;;-0.25;100.00
28665;BME280;15850;47.524;7.814;2022-12-10T05:07:41;96519.53;;;0.48;100.00
28665;BME280;15850;47.524;7.814;2022-12-10T05:10:08;96523.69;;;0.54;100.00
28665;BME280;15850;47.524;7.814;2022-12-10T05:12:33;96524.66;;;0.58;100.00
28665;BME280;15850;47.524;7.814;2022-12-10T05:14:59;96460.25;;;0.05;100.00
28665;BME280;15850;47.524;7.814;2022-12-10T05:17:26;96520.13;;;0.45;100.00
28665;BME280;15850;47.524;7.814;2022-12-10T05:19:52;96513.91;;;0.36;100.00
28665;BME280;15850;47.524;7.814;2022-12-10T05:22:17;96253.97;;;-1.44;100.00
28665;BME280;15850;47.524;7.814;2022-12-10T05:24:43;96502.53;;;0.03;100.00
28665;BME280;15850;47.524;7.814;2022-12-10T05:27:08;96461.34;;;-0.24;100.00
28665;BME280;15850;47.524;7.814;2022-12-10T05:29:34;96527.00;;;0.23;100.00
28665;BME280;15850;47.524;7.814;2022-12-10T05:32:00;96456.97;;;-0.20;100.00
28665;BME280;15850;47.524;7.814;2022-12-10T05:34:27;96379.50;;;-0.75;100.00
28665;BME280;15850;47.524;7.814;2022-12-10T05:36:53;96534.22;;;0.37;100.00
28665;BME280;15850;47.524;7.814;2022-12-10T05:39:18;96485.72;;;-0.12;100.00
28665;BME280;15850;47.524;7.814;2022-12-10T05:41:44;96477.09;;;0.05;100.00
28665;BME280;15850;47.524;7.814;2022-12-10T05:44:09;96540.28;;;0.15;100.00
28665;BME280;15850;47.524;7.814;2022-12-10T05:46:35;96543.47;;;0.17;100.00
28665;BME280;15850;47.524;7.814;2022-12-10T05:49:02;96548.88;;;-0.02;100.00
28665;BME280;15850;47.524;7.814;2022-12-10T05:51:31;96007.81;;;-3.53;100.00
28665;BME280;15850;47.524;7.814;2022-12-10T05:53:58;96485.31;;;-0.33;100.00
28665;BME280;15850;47.524;7.814;2022-12-10T05:56:26;96555.22;;;0.16;100.00
28665;BME280;15850;47.524;7.814;2022-12-10T05:58:53;96545.13;;;0.27;100.00
28665;BME280;15850;47.524;7.814;2022-12-10T06:01:21;96551.94;;;0.33;100.00
28665;BME280;15850;47.524;7.814;2022-12-10T06:03:48;96549.38;;;0.28;100.00
28665;BME280;15850;47.524;7.814;2022-12-10T06:06:14;96556.69;;;0.36;100.00
28665;BME280;15850;47.524;7.814;2022-12-10T06:08:41;96291.50;;;-1.54;100.00
28665;BME280;15850;47.524;7.814;2022-12-10T06:11:08;96559.38;;;0.22;100.00
28665;BME280;15850;47.524;7.814;2022-12-10T06:13:34;96575.13;;;0.10;100.00
28665;BME280;15850;47.524;7.814;2022-12-10T06:16:04;96514.81;;;-0.24;100.00
28665;BME280;15850;47.524;7.814;2022-12-10T06:18:30;96091.00;;;-2.77;100.00
28665;BME280;15850;47.524;7.814;2022-12-10T06:20:55;96405.50;;;-0.81;100.00
28665;BME280;15850;47.524;7.814;2022-12-10T06:23:21;96421.94;;;-0.60;100.00
28665;BME280;15850;47.524;7.814;2022-12-10T06:25:49;96391.75;;;-0.74;100.00
28665;BME280;15850;47.524;7.814;2022-12-10T06:28:14;96454.06;;;-0.79;100.00
28665;BME280;15850;47.524;7.814;2022-12-10T06:30:40;96580.41;;;0.15;100.00
28665;BME280;15850;47.524;7.814;2022-12-10T06:33:05;96556.41;;;-0.04;100.00
28665;BME280;15850;47.524;7.814;2022-12-10T06:35:31;96574.66;;;0.35;100.00
28665;BME280;15850;47.524;7.814;2022-12-10T06:37:57;96601.88;;;0.10;100.00
28665;BME280;15850;47.524;7.814;2022-12-10T06:40:22;96263.72;;;-2.19;100.00
28665;BME280;15850;47.524;7.814;2022-12-10T06:42:51;96152.72;;;-2.75;100.00
28665;BME280;15850;47.524;7.814;2022-12-10T06:45:17;96595.59;;;-0.13;100.00
28665;BME280;15850;47.524;7.814;2022-12-10T06:47:42;96533.28;;;-0.41;100.00
28665;BME280;15850;47.524;7.814;2022-12-10T06:50:08;96547.63;;;-0.51;100.00
28665;BME280;15850;47.524;7.814;2022-12-10T06:52:34;96532.69;;;-0.52;100.00
28665;BME280;15850;47.524;7.814;2022-12-10T06:54:59;96256.84;;;-2.57;100.00
28665;BME280;15850;47.524;7.814;2022-12-10T06:57:25;96492.38;;;-1.02;100.00
28665;BME280;15850;47.524;7.814;2022-12-10T06:59:52;96559.19;;;-0.56;100.00
28665;BME280;15850;47.524;7.814;2022-12-10T07:02:18;96630.47;;;-0.05;100.00
28665;BME280;15850;47.524;7.814;2022-12-10T07:04:43;96567.13;;;-0.37;100.00
28665;BME280;15850;47.524;7.814;2022-12-10T07:07:09;96622.00;;;0.21;100.00
28665;BME280;15850;47.524;7.814;2022-12-10T07:09:35;96641.03;;;-0.13;100.00
28665;BME280;15850;47.524;7.814;2022-12-10T07:12:00;96620.47;;;-0.13;100.00
28665;BME280;15850;47.524;7.814;2022-12-10T07:14:26;96617.53;;;-0.30;100.00
28665;BME280;15850;47.524;7.814;2022-12-10T07:16:53;96529.59;;;-0.92;100.00
28665;BME280;15850;47.524;7.814;2022-12-10T07:19:18;96644.56;;;-0.32;100.00
28665;BME280;15850;47.524;7.814;2022-12-10T07:21:49;96457.81;;;-1.45;100.00
28665;BME280;15850;47.524;7.814;2022-12-10T07:24:16;96559.00;;;-0.78;100.00
28665;BME280;15850;47.524;7.814;2022-12-10T07:26:44;96621.22;;;-0.59;100.00
28665;BME280;15850;47.524;7.814;2022-12-10T07:29:13;96640.91;;;-0.36;100.00
28665;BME280;15850;47.524;7.814;2022-12-10T07:31:39;96405.47;;;-1.79;100.00
28665;BME280;15850;47.524;7.814;2022-12-10T07:34:06;96650.84;;;-0.22;100.00
28665;BME280;15850;47.524;7.814;2022-12-10T07:36:32;96519.44;;;-1.09;100.00
28665;BME280;15850;47.524;7.814;2022-12-10T07:38:57;96613.03;;;-0.49;100.00
28665;BME280;15850;47.524;7.814;2022-12-10T07:41:23;96525.06;;;-1.10;100.00
28665;BME280;15850;47.524;7.814;2022-12-10T07:43:50;96650.06;;;-0.23;100.00
28665;BME280;15850;47.524;7.814;2022-12-10T07:46:17;96658.16;;;-0.47;100.00
28665;BME280;15850;47.524;7.814;2022-12-10T07:48:44;96594.16;;;-0.90;100.00
28665;BME280;15850;47.524;7.814;2022-12-10T07:51:12;96659.31;;;-0.34;100.00
28665;BME280;15850;47.524;7.814;2022-12-10T07:53:39;96661.19;;;-0.35;100.00
28665;BME280;15850;47.524;7.814;2022-12-10T07:56:05;96660.31;;;-0.30;100.00
28665;BME280;15850;47.524;7.814;2022-12-10T07:58:31;96607.06;;;-0.59;100.00
28665;BME280;15850;47.524;7.814;2022-12-10T08:00:56;96677.56;;;-0.22;100.00
28665;BME280;15850;47.524;7.814;2022-12-10T08:03:22;96666.16;;;-0.28;100.00
28665;BME280;15850;47.524;7.814;2022-12-10T08:06:02;96669.72;;;-0.33;100.00
28665;BME280;15850;47.524;7.814;2022-12-10T08:08:29;96567.56;;;-0.95;100.00
28665;BME280;15850;47.524;7.814;2022-12-10T08:10:55;96693.63;;;-0.22;100.00
28665;BME280;15850;47.524;7.814;2022-12-10T08:13:20;96681.09;;;-0.27;100.00
28665;BME280;15850;47.524;7.814;2022-12-10T08:15:46;96675.56;;;-0.31;100.00
28665;BME280;15850;47.524;7.814;2022-12-10T08:18:11;96626.63;;;-0.64;100.00
28665;BME280;15850;47.524;7.814;2022-12-10T08:20:37;96683.88;;;-0.32;100.00
28665;BME280;15850;47.524;7.814;2022-12-10T08:23:02;96691.59;;;-0.31;100.00
28665;BME280;15850;47.524;7.814;2022-12-10T08:25:29;96639.19;;;-0.64;100.00
28665;BME280;15850;47.524;7.814;2022-12-10T08:27:55;96709.66;;;-0.22;100.00
28665;BME280;15850;47.524;7.814;2022-12-10T08:30:23;96691.16;;;-0.19;100.00
28665;BME280;15850;47.524;7.814;2022-12-10T08:32:49;96672.38;;;-0.33;100.00
28665;BME280;15850;47.524;7.814;2022-12-10T08:35:14;96702.13;;;-0.20;100.00
28665;BME280;15850;47.524;7.814;2022-12-10T08:37:40;96596.34;;;-0.92;100.00
28665;BME280;15850;47.524;7.814;2022-12-10T08:40:08;96698.97;;;-0.22;100.00
28665;BME280;15850;47.524;7.814;2022-12-10T08:42:35;96606.88;;;-1.01;100.00
28665;BME280;15850;47.524;7.814;2022-12-10T08:45:01;96622.69;;;-1.04;100.00
28665;BME280;15850;47.524;7.814;2022-12-10T08:47:26;96720.72;;;-0.29;100.00
28665;BME280;15850;47.524;7.814;2022-12-10T08:49:52;96720.19;;;-0.31;100.00
28665;BME280;15850;47.524;7.814;2022-12-10T08:52:19;96546.34;;;-1.43;100.00
28665;BME280;15850;47.524;7.814;2022-12-10T08:54:46;96743.25;;;-0.35;100.00
28665;BME280;15850;47.524;7.814;2022-12-10T08:57:12;96658.69;;;-0.83;100.00
28665;BME280;15850;47.524;7.814;2022-12-10T08:59:39;96653.38;;;-0.83;100.00
28665;BME280;15850;47.524;7.814;2022-12-10T09:02:04;96723.44;;;-0.34;100.00
28665;BME280;15850;47.524;7.814;2022-12-10T09:04:31;96617.72;;;-0.92;100.00
28665;BME280;15850;47.524;7.814;2022-12-10T09:06:56;96726.63;;;-0.32;100.00
28665;BME280;15850;47.524;7.814;2022-12-10T09:09:22;96724.03;;;-0.37;100.00
28665;BME280;15850;47.524;7.814;2022-12-10T09:11:53;96739.63;;;-0.26;100.00
28665;BME280;15850;47.524;7.814;2022-12-10T09:14:19;96727.47;;;-0.37;100.00
28665;BME280;15850;47.524;7.814;2022-12-10T09:16:46;96651.75;;;-0.84;100.00
28665;BME280;15850;47.524;7.814;2022-12-10T09:19:11;96737.47;;;-0.42;100.00
28665;BME280;15850;47.524;7.814;2022-12-10T09:21:37;96595.56;;;-1.11;100.00
28665;BME280;15850;47.524;7.814;2022-12-10T09:24:03;96689.69;;;-0.63;100.00
28665;BME280;15850;47.524;7.814;2022-12-10T09:26:28;96751.84;;;-0.19;100.00
28665;BME280;15850;47.524;7.814;2022-12-10T09:28:54;96754.16;;;-0.32;100.00
28665;BME280;15850;47.524;7.814;2022-12-10T09:31:21;96705.97;;;-0.64;100.00
28665;BME280;15850;47.524;7.814;2022-12-10T09:33:51;96629.00;;;-1.00;100.00
28665;BME280;15850;47.524;7.814;2022-12-10T09:36:17;96751.19;;;-0.30;100.00
28665;BME280;15850;47.524;7.814;2022-12-10T09:38:44;96768.59;;;-0.33;100.00
28665;BME280;15850;47.524;7.814;2022-12-10T09:41:27;96770.75;;;-0.35;100.00
28665;BME280;15850;47.524;7.814;2022-12-10T09:44:01;96766.00;;;-0.38;100.00
28665;BME280;15850;47.524;7.814;2022-12-10T09:46:40;96327.78;;;-3.15;100.00
28665;BME280;15850;47.524;7.814;2022-12-10T09:49:14;96549.97;;;-1.77;100.00
28665;BME280;15850;47.524;7.814;2022-12-10T09:51:43;96776.25;;;-0.26;100.00
28665;BME280;15850;47.524;7.814;2022-12-10T09:54:17;96685.75;;;-0.71;100.00
28665;BME280;15850;47.524;7.814;2022-12-10T09:56:44;96776.38;;;-0.17;100.00
28665;BME280;15850;47.524;7.814;2022-12-10T09:59:16;96591.03;;;-1.54;100.00
28665;BME280;15850;47.524;7.814;2022-12-10T10:01:44;96624.09;;;-1.31;100.00
28665;BME280;15850;47.524;7.814;2022-12-10T10:04:12;96634.63;;;-1.21;100.00
28665;BME280;15850;47.524;7.814;2022-12-10T10:06:37;96488.63;;;-2.20;100.00
28665;BME280;15850;47.524;7.814;2022-12-10T10:09:05;96780.06;;;-0.13;100.00
28665;BME280;15850;47.524;7.814;2022-12-10T10:11:33;96773.28;;;-0.06;100.00
28665;BME280;15850;47.524;7.814;2022-12-10T10:14:03;96792.72;;;-0.19;100.00
28665;BME280;15850;47.524;7.814;2022-12-10T10:16:33;96787.97;;;-0.22;100.00
28665;BME280;15850;47.524;7.814;2022-12-10T10:19:02;96650.91;;;-0.98;100.00
28665;BME280;15850;47.524;7.814;2022-12-10T10:21:33;96735.66;;;-0.28;100.00
28665;BME280;15850;47.524;7.814;2022-12-10T10:24:01;96787.38;;;-0.19;100.00
28665;BME280;15850;47.524;7.814;2022-12-10T10:26:27;96568.53;;;-1.48;100.00
28665;BME280;15850;47.524;7.814;2022-12-10T10:28:57;96787.81;;;0.07;100.00
28665;BME280;15850;47.524;7.814;2022-12-10T10:31:25;96779.06;;;0.02;100.00
28665;BME280;15850;47.524;7.814;2022-12-10T10:33:53;96613.31;;;-1.02;100.00
28665;BME280;15850;47.524;7.814;2022-12-10T10:36:23;96784.34;;;0.07;100.00
28665;BME280;15850;47.524;7.814;2022-12-10T10:38:50;96775.50;;;0.06;100.00
28665;BME280;15850;47.524;7.814;2022-12-10T10:41:16;96489.50;;;-1.81;100.00
28665;BME280;15850;47.524;7.814;2022-12-10T10:43:42;96725.69;;;-0.22;100.00
28665;BME280;15850;47.524;7.814;2022-12-10T10:46:11;96770.31;;;-0.04;100.00
28665;BME280;15850;47.524;7.814;2022-12-10T10:48:38;96786.66;;;0.13;100.00
28665;BME280;15850;47.524;7.814;2022-12-10T10:51:06;96792.72;;;0.00;100.00
28665;BME280;15850;47.524;7.814;2022-12-10T10:53:40;96790.31;;;0.17;100.00
28665;BME280;15850;47.524;7.814;2022-12-10T10:56:10;96791.31;;;0.21;100.00
28665;BME280;15850;47.524;7.814;2022-12-10T10:58:46;96779.84;;;0.21;100.00
28665;BME280;15850;47.524;7.814;2022-12-10T11:01:13;96695.19;;;-0.21;100.00
28665;BME280;15850;47.524;7.814;2022-12-10T11:03:46;96791.38;;;0.16;100.00
28665;BME280;15850;47.524;7.814;2022-12-10T11:06:12;96767.25;;;0.21;100.00
28665;BME280;15850;47.524;7.814;2022-12-10T11:08:38;96803.41;;;0.19;100.00
28665;BME280;15850;47.524;7.814;2022-12-10T11:11:11;96803.78;;;0.45;100.00
28665;BME280;15850;47.524;7.814;2022-12-10T11:13:38;96794.78;;;0.22;100.00
28665;BME280;15850;47.524;7.814;2022-12-10T11:16:11;96797.56;;;0.17;100.00
28665;BME280;15850;47.524;7.814;2022-12-10T11:18:39;96825.31;;;0.02;100.00
28665;BME280;15850;47.524;7.814;2022-12-10T11:21:07;96810.41;;;-0.04;100.00
28665;BME280;15850;47.524;7.814;2022-12-10T11:23:43;96810.63;;;-0.01;100.00
28665;BME280;15850;47.524;7.814;2022-12-10T11:26:21;96800.50;;;-0.04;100.00
28665;BME280;15850;47.524;7.814;2022-12-10T11:29:01;96757.91;;;-0.52;100.00
28665;BME280;15850;47.524;7.814;2022-12-10T11:31:40;96725.75;;;-0.47;100.00
28665;BME280;15850;47.524;7.814;2022-12-10T11:34:17;96802.59;;;-0.01;100.00
28665;BME280;15850;47.524;7.814;2022-12-10T11:36:53;96751.06;;;-0.39;100.00
28665;BME280;15850;47.524;7.814;2022-12-10T11:39:37;96808.84;;;-0.05;100.00
28665;BME280;15850;47.524;7.814;2022-12-10T11:42:13;96712.25;;;-0.74;100.00
28665;BME280;15850;47.524;7.814;2022-12-10T11:44:50;96823.22;;;-0.01;100.00
28665;BME280;15850;47.524;7.814;2022-12-10T11:47:29;96792.44;;;-0.17;100.00
28665;BME280;15850;47.524;7.814;2022-12-10T11:50:10;96816.34;;;-0.07;100.00
28665;BME280;15850;47.524;7.814;2022-12-10T11:52:47;96811.88;;;0.07;100.00
28665;BME280;15850;47.524;7.814;2022-12-10T11:55:27;96761.16;;;-0.36;100.00
28665;BME280;15850;47.524;7.814;2022-12-10T11:58:13;96752.72;;;-0.43;100.00
28665;BME280;15850;47.524;7.814;2022-12-10T12:00:51;96611.03;;;-1.13;100.00
28665;BME280;15850;47.524;7.814;2022-12-10T12:03:35;96809.06;;;0.17;100.00
28665;BME280;15850;47.524;7.814;2022-12-10T12:06:13;96828.25;;;0.19;100.00
28665;BME280;15850;47.524;7.814;2022-12-10T12:08:49;96834.19;;;0.16;100.00
28665;BME280;15850;47.524;7.814;2022-12-10T12:11:25;96635.00;;;-1.08;100.00
28665;BME280;15850;47.524;7.814;2022-12-10T12:14:00;96648.34;;;-1.08;100.00
28665;BME280;15850;47.524;7.814;2022-12-10T12:16:31;96841.94;;;-0.01;100.00
28665;BME280;15850;47.524;7.814;2022-12-10T12:19:02;96849.09;;;0.04;100.00
28665;BME280;15850;47.524;7.814;2022-12-10T12:21:29;96800.09;;;-0.30;100.00
28665;BME280;15850;47.524;7.814;2022-12-10T12:23:58;96622.28;;;-1.16;100.00
28665;BME280;15850;47.524;7.814;2022-12-10T12:26:27;96854.94;;;0.06;100.00
28665;BME280;15850;47.524;7.814;2022-12-10T12:28:58;96853.00;;;0.11;100.00
28665;BME280;15850;47.524;7.814;2022-12-10T12:31:31;96748.78;;;-0.51;100.00
28665;BME280;15850;47.524;7.814;2022-12-10T12:34:01;96861.81;;;0.31;100.00
28665;BME280;15850;47.524;7.814;2022-12-10T12:36:30;96853.72;;;0.17;100.00
28665;BME280;15850;47.524;7.814;2022-12-10T12:39:02;96816.66;;;-0.09;100.00
28665;BME280;15850;47.524;7.814;2022-12-10T12:41:34;96867.81;;;0.04;100.00
28665;BME280;15850;47.524;7.814;2022-12-10T12:44:10;96700.03;;;-0.99;100.00
28665;BME280;15850;47.524;7.814;2022-12-10T12:46:42;96702.31;;;-1.11;100.00
28665;BME280;15850;47.524;7.814;2022-12-10T12:49:14;96868.91;;;-0.16;100.00
28665;BME280;15850;47.524;7.814;2022-12-10T12:51:46;96875.34;;;0.02;100.00
28665;BME280;15850;47.524;7.814;2022-12-10T12:54:15;96843.88;;;-0.07;100.00
28665;BME280;15850;47.524;7.814;2022-12-10T12:57:01;96874.97;;;0.08;100.00
28665;BME280;15850;47.524;7.814;2022-12-10T12:59:38;96833.09;;;-0.20;100.00
28665;BME280;15850;47.524;7.814;2022-12-10T13:02:17;96881.41;;;0.07;100.00
28665;BME280;15850;47.524;7.814;2022-12-10T13:04:46;96772.38;;;-0.77;100.00